sensor_id;sensor_type;location;lat;lon;timestamp;temperature;humidity
67890;DHT22;54685;52.082;5.426;2024-01-07T00:01:20;1.40;99.90
67890;DHT22;54685;52.082;5.426;2024-01-07T00:03:48;1.40;99.90
67890;DHT22;54685;52.082;5.426;2024-01-07T00:06:15;1.40;99.90
67890;DHT22;54685;52.082;5.426;2024-01-07T00:08:42;1.50;99.90
67890;DHT22;54685;52.082;5.426;2024-01-07T00:11:09;1.50;99.90
67890;DHT22;54685;52.082;5.426;2024-01-07T00:13:36;1.50;99.90
67890;DHT22;54685;52.082;5.426;2024-01-07T00:16:03;1.50;99.90
67890;DHT22;54685;52.082;5.426;2024-01-07T00:18:30;1.50;99.90
67890;DHT22;54685;52.082;5.426;2024-01-07T00:20:57;1.40;99.90
67890;DHT22;54685;52.082;5.426;2024-01-07T00:23:23;1.50;99.90
67890;DHT22;54685;52.082;5.426;2024-01-07T00:25:51;1.40;99.90
67890;DHT22;54685;52.082;5.426;2024-01-07T00:28:17;1.40;99.90
67890;DHT22;54685;52.082;5.426;2024-01-07T00:30:44;1.40;99.90
67890;DHT22;54685;52.082;5.426;2024-01-07T00:33:12;1.50;99.90
67890;DHT22;54685;52.082;5.426;2024-01-07T00:35:38;1.50;99.90
67890;DHT22;54685;52.082;5.426;2024-01-07T00:38:05;1.50;99.90
67890;DHT22;54685;52.082;5.426;2024-01-07T00:40:32;1.60;99.90
67890;DHT22;54685;52.082;5.426;2024-01-07T00:42:59;1.60;99.90
67890;DHT22;54685;52.082;5.426;2024-01-07T00:45:26;1.60;99.90
67890;DHT22;54685;52.082;5.426;2024-01-07T00:47:53;1.60;99.90
67890;DHT22;54685;52.082;5.426;2024-01-07T00:50:22;1.40;99.90
67890;DHT22;54685;52.082;5.426;2024-01-07T00:52:49;1.50;99.90
67890;DHT22;54685;52.082;5.426;2024-01-07T00:55:16;1.50;99.90
67890;DHT22;54685;52.082;5.426;2024-01-07T00:57:43;1.50;99.90
67890;DHT22;54685;52.082;5.426;2024-01-07T01:00:10;1.50;99.90
67890;DHT22;54685;52.082;5.426;2024-01-07T01:02:37;1.50;99.90
67890;DHT22;54685;52.082;5.426;2024-01-07T01:05:04;1.40;99.90
67890;DHT22;54685;52.082;5.426;2024-01-07T01:07:31;1.40;99.90
67890;DHT22;54685;52.082;5.426;2024-01-07T01:09:58;1.50;99.90
67890;DHT22;54685;52.082;5.426;2024-01-07T01:12:25;1.50;99.90
67890;DHT22;54685;52.082;5.426;2024-01-07T01:14:52;1.50;99.90
67890;DHT22;54685;52.082;5.426;2024-01-07T01:17:19;1.40;99.90
67890;DHT22;54685;52.082;5.426;2024-01-07T01:19:46;1.50;99.90
67890;DHT22;54685;52.082;5.426;2024-01-07T01:22:13;1.40;99.90
67890;DHT22;54685;52.082;5.426;2024-01-07T01:24:40;1.40;99.90
67890;DHT22;54685;52.082;5.426;2024-01-07T01:27:07;1.40;99.90
67890;DHT22;54685;52.082;5.426;2024-01-07T01:29:34;1.50;99.90
67890;DHT22;54685;52.082;5.426;2024-01-07T01:32:01;1.40;99.90
67890;DHT22;54685;52.082;5.426;2024-01-07T01:34:28;1.40;99.90
67890;DHT22;54685;52.082;5.426;2024-01-07T01:36:54;1.30;99.90
67890;DHT22;54685;52.082;5.426;2024-01-07T01:39:21;1.40;99.90
67890;DHT22;54685;52.082;5.426;2024-01-07T01:41:48;1.30;99.90
67890;DHT22;54685;52.082;5.426;2024-01-07T01:44:15;1.20;99.90
67890;DHT22;54685;52.082;5.426;2024-01-07T01:46:45;1.30;99.90
67890;DHT22;54685;52.082;5.426;2024-01-07T01:49:12;1.20;99.90
67890;DHT22;54685;52.082;5.426;2024-01-07T01:51:40;1.20;99.90
67890;DHT22;54685;52.082;5.426;2024-01-07T01:54:07;1.20;99.90
67890;DHT22;54685;52.082;5.426;2024-01-07T01:56:34;1.20;99.90
67890;DHT22;54685;52.082;5.426;2024-01-07T01:59:01;1.20;99.90
67890;DHT22;54685;52.082;5.426;2024-01-07T02:01:28;1.20;99.90
67890;DHT22;54685;52.082;5.426;2024-01-07T02:03:55;1.20;99.90
67890;DHT22;54685;52.082;5.426;2024-01-07T02:06:24;1.30;99.90
67890;DHT22;54685;52.082;5.426;2024-01-07T02:08:51;1.30;99.90
67890;DHT22;54685;52.082;5.426;2024-01-07T02:11:19;1.30;99.90
67890;DHT22;54685;52.082;5.426;2024-01-07T02:13:47;1.30;99.90
67890;DHT22;54685;52.082;5.426;2024-01-07T02:16:15;1.30;99.90
67890;DHT22;54685;52.082;5.426;2024-01-07T02:18:45;1.20;99.90
67890;DHT22;54685;52.082;5.426;2024-01-07T02:21:14;1.20;99.90
67890;DHT22;54685;52.082;5.426;2024-01-07T02:23:42;1.30;99.90
67890;DHT22;54685;52.082;5.426;2024-01-07T02:26:09;1.20;99.90
67890;DHT22;54685;52.082;5.426;2024-01-07T02:28:35;1.30;99.90
67890;DHT22;54685;52.082;5.426;2024-01-07T02:31:03;1.20;99.90
67890;DHT22;54685;52.082;5.426;2024-01-07T02:33:31;1.20;99.90
67890;DHT22;54685;52.082;5.426;2024-01-07T02:35:58;1.30;99.90
67890;DHT22;54685;52.082;5.426;2024-01-07T02:38:24;1.30;99.90
67890;DHT22;54685;52.082;5.426;2024-01-07T02:40:51;1.20;99.90
67890;DHT22;54685;52.082;5.426;2024-01-07T02:43:18;1.20;99.90
67890;DHT22;54685;52.082;5.426;2024-01-07T02:45:45;1.30;99.90
67890;DHT22;54685;52.082;5.426;2024-01-07T02:48:12;1.30;99.90
67890;DHT22;54685;52.082;5.426;2024-01-07T02:50:39;1.30;99.90
67890;DHT22;54685;52.082;5.426;2024-01-07T02:53:06;1.30;99.90
67890;DHT22;54685;52.082;5.426;2024-01-07T02:55:35;1.30;99.90
67890;DHT22;54685;52.082;5.426;2024-01-07T02:58:01;1.30;99.90
67890;DHT22;54685;52.082;5.426;2024-01-07T03:00:28;1.30;99.90
67890;DHT22;54685;52.082;5.426;2024-01-07T03:02:56;1.10;99.90
67890;DHT22;54685;52.082;5.426;2024-01-07T03:05:23;1.20;99.90
67890;DHT22;54685;52.082;5.426;2024-01-07T03:07:50;1.30;99.90
67890;DHT22;54685;52.082;5.426;2024-01-07T03:10:17;1.30;99.90
67890;DHT22;54685;52.082;5.426;2024-01-07T03:12:44;1.20;99.90
67890;DHT22;54685;52.082;5.426;2024-01-07T03:15:11;1.20;99.90
67890;DHT22;54685;52.082;5.426;2024-01-07T03:17:38;1.20;99.90
67890;DHT22;54685;52.082;5.426;2024-01-07T03:20:05;1.10;99.90
67890;DHT22;54685;52.082;5.426;2024-01-07T03:22:32;1.20;99.90
67890;DHT22;54685;52.082;5.426;2024-01-07T03:24:59;1.20;99.90
67890;DHT22;54685;52.082;5.426;2024-01-07T03:27:26;1.20;99.90
67890;DHT22;54685;52.082;5.426;2024-01-07T03:29:53;1.20;99.90
67890;DHT22;54685;52.082;5.426;2024-01-07T03:32:20;1.20;99.90
67890;DHT22;54685;52.082;5.426;2024-01-07T03:34:47;1.20;99.90
67890;DHT22;54685;52.082;5.426;2024-01-07T03:37:14;1.20;99.90
67890;DHT22;54685;52.082;5.426;2024-01-07T03:39:41;1.30;99.90
67890;DHT22;54685;52.082;5.426;2024-01-07T03:42:08;1.20;99.90
67890;DHT22;54685;52.082;5.426;2024-01-07T03:44:38;1.20;99.90
67890;DHT22;54685;52.082;5.426;2024-01-07T03:47:06;1.20;99.90
67890;DHT22;54685;52.082;5.426;2024-01-07T03:49:33;1.20;99.90
67890;DHT22;54685;52.082;5.426;2024-01-07T03:52:00;1.30;99.90
67890;DHT22;54685;52.082;5.426;2024-01-07T03:54:27;1.20;99.90
67890;DHT22;54685;52.082;5.426;2024-01-07T03:56:54;1.10;99.90
67890;DHT22;54685;52.082;5.426;2024-01-07T03:59:21;1.30;99.90
67890;DHT22;54685;52.082;5.426;2024-01-07T04:01:50;1.20;99.90
67890;DHT22;54685;52.082;5.426;2024-01-07T04:04:17;1.20;99.90
67890;DHT22;54685;52.082;5.426;2024-01-07T04:06:44;1.20;99.90
67890;DHT22;54685;52.082;5.426;2024-01-07T04:09:11;1.20;99.90
67890;DHT22;54685;52.082;5.426;2024-01-07T04:11:42;1.20;99.90
67890;DHT22;54685;52.082;5.426;2024-01-07T04:14:09;1.20;99.90
67890;DHT22;54685;52.082;5.426;2024-01-07T04:16:36;1.20;99.90
67890;DHT22;54685;52.082;5.426;2024-01-07T04:19:03;1.10;99.90
67890;DHT22;54685;52.082;5.426;2024-01-07T04:21:30;1.10;99.90
67890;DHT22;54685;52.082;5.426;2024-01-07T04:23:57;1.10;99.90
67890;DHT22;54685;52.082;5.426;2024-01-07T04:26:24;1.00;99.90
67890;DHT22;54685;52.082;5.426;2024-01-07T04:28:51;1.10;99.90
67890;DHT22;54685;52.082;5.426;2024-01-07T04:31:18;1.10;99.90
67890;DHT22;54685;52.082;5.426;2024-01-07T04:33:45;1.10;99.90
67890;DHT22;54685;52.082;5.426;2024-01-07T04:36:12;1.10;99.90
67890;DHT22;54685;52.082;5.426;2024-01-07T04:38:39;1.10;99.90
67890;DHT22;54685;52.082;5.426;2024-01-07T04:41:06;1.20;99.90
67890;DHT22;54685;52.082;5.426;2024-01-07T04:43:34;1.20;99.90
67890;DHT22;54685;52.082;5.426;2024-01-07T04:46:02;1.20;99.90
67890;DHT22;54685;52.082;5.426;2024-01-07T04:48:29;1.10;99.90
67890;DHT22;54685;52.082;5.426;2024-01-07T04:50:56;1.20;99.90
67890;DHT22;54685;52.082;5.426;2024-01-07T04:53:23;1.10;99.90
67890;DHT22;54685;52.082;5.426;2024-01-07T04:55:49;1.20;99.90
67890;DHT22;54685;52.082;5.426;2024-01-07T04:58:16;1.20;99.90
67890;DHT22;54685;52.082;5.426;2024-01-07T05:00:43;1.20;99.90
67890;DHT22;54685;52.082;5.426;2024-01-07T05:03:10;1.20;99.90
67890;DHT22;54685;52.082;5.426;2024-01-07T05:05:37;1.20;99.90
67890;DHT22;54685;52.082;5.426;2024-01-07T05:08:05;1.10;99.90
67890;DHT22;54685;52.082;5.426;2024-01-07T05:10:32;1.10;99.90
67890;DHT22;54685;52.082;5.426;2024-01-07T05:12:59;1.00;99.90
67890;DHT22;54685;52.082;5.426;2024-01-07T05:15:32;1.10;99.90
67890;DHT22;54685;52.082;5.426;2024-01-07T05:17:59;1.10;99.90
67890;DHT22;54685;52.082;5.426;2024-01-07T05:20:26;1.10;99.90
67890;DHT22;54685;52.082;5.426;2024-01-07T05:22:53;1.20;99.90
67890;DHT22;54685;52.082;5.426;2024-01-07T05:25:20;1.20;99.90
67890;DHT22;54685;52.082;5.426;2024-01-07T05:27:47;1.10;99.90
67890;DHT22;54685;52.082;5.426;2024-01-07T05:30:14;1.10;99.90
67890;DHT22;54685;52.082;5.426;2024-01-07T05:32:41;1.10;99.90
67890;DHT22;54685;52.082;5.426;2024-01-07T05:35:08;1.10;99.90
67890;DHT22;54685;52.082;5.426;2024-01-07T05:37:35;1.10;99.90
67890;DHT22;54685;52.082;5.426;2024-01-07T05:40:02;1.10;99.90
67890;DHT22;54685;52.082;5.426;2024-01-07T05:42:30;1.20;99.90
67890;DHT22;54685;52.082;5.426;2024-01-07T05:44:56;1.20;99.90
67890;DHT22;54685;52.082;5.426;2024-01-07T05:47:23;1.20;99.90
67890;DHT22;54685;52.082;5.426;2024-01-07T05:49:50;1.20;99.90
67890;DHT22;54685;52.082;5.426;2024-01-07T05:52:19;1.20;99.90
67890;DHT22;54685;52.082;5.426;2024-01-07T05:54:46;1.20;99.90
67890;DHT22;54685;52.082;5.426;2024-01-07T05:57:13;1.10;99.90
67890;DHT22;54685;52.082;5.426;2024-01-07T05:59:39;1.20;99.90
67890;DHT22;54685;52.082;5.426;2024-01-07T06:02:06;1.10;99.90
67890;DHT22;54685;52.082;5.426;2024-01-07T06:04:33;1.10;99.90
67890;DHT22;54685;52.082;5.426;2024-01-07T06:07:00;1.10;99.90
67890;DHT22;54685;52.082;5.426;2024-01-07T06:09:27;1.00;99.90
67890;DHT22;54685;52.082;5.426;2024-01-07T06:11:54;1.00;99.90
67890;DHT22;54685;52.082;5.426;2024-01-07T06:14:22;1.00;99.90
67890;DHT22;54685;52.082;5.426;2024-01-07T06:16:49;1.10;99.90
67890;DHT22;54685;52.082;5.426;2024-01-07T06:19:20;1.20;99.90
67890;DHT22;54685;52.082;5.426;2024-01-07T06:21:47;1.20;99.90
67890;DHT22;54685;52.082;5.426;2024-01-07T06:24:14;1.10;99.90
67890;DHT22;54685;52.082;5.426;2024-01-07T06:26:41;1.10;99.90
67890;DHT22;54685;52.082;5.426;2024-01-07T06:29:08;1.10;99.90
67890;DHT22;54685;52.082;5.426;2024-01-07T06:31:46;1.10;99.90
67890;DHT22;54685;52.082;5.426;2024-01-07T06:34:13;1.10;99.90
67890;DHT22;54685;52.082;5.426;2024-01-07T06:36:41;1.10;99.90
67890;DHT22;54685;52.082;5.426;2024-01-07T06:39:08;1.10;99.90
67890;DHT22;54685;52.082;5.426;2024-01-07T06:41:35;1.00;99.90
67890;DHT22;54685;52.082;5.426;2024-01-07T06:44:03;1.00;99.90
67890;DHT22;54685;52.082;5.426;2024-01-07T06:46:30;1.10;99.90
67890;DHT22;54685;52.082;5.426;2024-01-07T06:48:57;1.10;99.90
67890;DHT22;54685;52.082;5.426;2024-01-07T06:51:24;1.10;99.90
67890;DHT22;54685;52.082;5.426;2024-01-07T06:53:51;1.00;99.90
67890;DHT22;54685;52.082;5.426;2024-01-07T06:56:18;1.00;99.90
67890;DHT22;54685;52.082;5.426;2024-01-07T06:58:44;1.10;99.90
67890;DHT22;54685;52.082;5.426;2024-01-07T07:01:12;1.00;99.90
67890;DHT22;54685;52.082;5.426;2024-01-07T07:03:40;1.00;99.90
67890;DHT22;54685;52.082;5.426;2024-01-07T07:06:07;1.00;99.90
67890;DHT22;54685;52.082;5.426;2024-01-07T07:08:34;0.90;99.90
67890;DHT22;54685;52.082;5.426;2024-01-07T07:11:01;0.90;99.90
67890;DHT22;54685;52.082;5.426;2024-01-07T07:13:28;1.00;99.90
67890;DHT22;54685;52.082;5.426;2024-01-07T07:15:55;1.00;99.90
67890;DHT22;54685;52.082;5.426;2024-01-07T07:18:22;0.90;99.90
67890;DHT22;54685;52.082;5.426;2024-01-07T07:20:49;0.90;99.90
67890;DHT22;54685;52.082;5.426;2024-01-07T07:23:16;0.90;99.90
67890;DHT22;54685;52.082;5.426;2024-01-07T07:25:43;0.90;99.90
67890;DHT22;54685;52.082;5.426;2024-01-07T07:28:10;0.90;99.90
67890;DHT22;54685;52.082;5.426;2024-01-07T07:30:37;1.00;99.90
67890;DHT22;54685;52.082;5.426;2024-01-07T07:33:05;1.00;99.90
67890;DHT22;54685;52.082;5.426;2024-01-07T07:35:31;0.90;99.90
67890;DHT22;54685;52.082;5.426;2024-01-07T07:37:59;0.90;99.90
67890;DHT22;54685;52.082;5.426;2024-01-07T07:40:26;1.00;99.90
67890;DHT22;54685;52.082;5.426;2024-01-07T07:42:53;1.00;99.90
67890;DHT22;54685;52.082;5.426;2024-01-07T07:45:20;1.00;99.90
67890;DHT22;54685;52.082;5.426;2024-01-07T07:47:47;1.00;99.90
67890;DHT22;54685;52.082;5.426;2024-01-07T07:50:14;1.00;99.90
67890;DHT22;54685;52.082;5.426;2024-01-07T07:52:42;1.00;99.90
67890;DHT22;54685;52.082;5.426;2024-01-07T07:55:11;1.00;99.90
67890;DHT22;54685;52.082;5.426;2024-01-07T07:57:38;1.00;99.90
67890;DHT22;54685;52.082;5.426;2024-01-07T08:00:07;0.90;99.90
67890;DHT22;54685;52.082;5.426;2024-01-07T08:02:34;0.90;99.90
67890;DHT22;54685;52.082;5.426;2024-01-07T08:05:01;0.80;99.90
67890;DHT22;54685;52.082;5.426;2024-01-07T08:07:28;0.80;99.90
67890;DHT22;54685;52.082;5.426;2024-01-07T08:09:55;0.80;99.90
67890;DHT22;54685;52.082;5.426;2024-01-07T08:12:24;0.70;99.90
67890;DHT22;54685;52.082;5.426;2024-01-07T08:14:51;0.70;99.90
67890;DHT22;54685;52.082;5.426;2024-01-07T08:17:18;0.70;99.90
67890;DHT22;54685;52.082;5.426;2024-01-07T08:19:45;0.80;99.90
67890;DHT22;54685;52.082;5.426;2024-01-07T08:22:12;0.80;99.90
67890;DHT22;54685;52.082;5.426;2024-01-07T08:24:41;0.80;99.90
67890;DHT22;54685;52.082;5.426;2024-01-07T08:27:08;0.80;99.90
67890;DHT22;54685;52.082;5.426;2024-01-07T08:29:36;0.80;99.90
67890;DHT22;54685;52.082;5.426;2024-01-07T08:32:03;0.80;99.90
67890;DHT22;54685;52.082;5.426;2024-01-07T08:34:30;0.80;99.90
67890;DHT22;54685;52.082;5.426;2024-01-07T08:37:00;0.80;99.90
67890;DHT22;54685;52.082;5.426;2024-01-07T08:39:27;0.80;99.90
67890;DHT22;54685;52.082;5.426;2024-01-07T08:41:56;0.70;99.90
67890;DHT22;54685;52.082;5.426;2024-01-07T08:44:23;0.70;99.90
67890;DHT22;54685;52.082;5.426;2024-01-07T08:46:50;0.70;99.90
67890;DHT22;54685;52.082;5.426;2024-01-07T08:49:17;0.70;99.90
67890;DHT22;54685;52.082;5.426;2024-01-07T08:51:44;0.80;99.90
67890;DHT22;54685;52.082;5.426;2024-01-07T08:54:11;0.80;99.90
67890;DHT22;54685;52.082;5.426;2024-01-07T08:56:38;0.80;99.90
67890;DHT22;54685;52.082;5.426;2024-01-07T08:59:06;0.70;99.90
67890;DHT22;54685;52.082;5.426;2024-01-07T09:01:33;0.70;99.90
67890;DHT22;54685;52.082;5.426;2024-01-07T09:04:00;0.60;99.90
67890;DHT22;54685;52.082;5.426;2024-01-07T09:06:27;0.60;99.90
67890;DHT22;54685;52.082;5.426;2024-01-07T09:08:54;0.70;99.90
67890;DHT22;54685;52.082;5.426;2024-01-07T09:11:22;0.70;99.90
67890;DHT22;54685;52.082;5.426;2024-01-07T09:13:49;0.70;99.90
67890;DHT22;54685;52.082;5.426;2024-01-07T09:16:17;0.70;99.90
67890;DHT22;54685;52.082;5.426;2024-01-07T09:18:44;0.70;99.90
67890;DHT22;54685;52.082;5.426;2024-01-07T09:21:11;0.80;99.90
67890;DHT22;54685;52.082;5.426;2024-01-07T09:23:41;0.80;99.90
67890;DHT22;54685;52.082;5.426;2024-01-07T09:26:08;0.80;99.90
67890;DHT22;54685;52.082;5.426;2024-01-07T09:28:35;0.80;99.90
67890;DHT22;54685;52.082;5.426;2024-01-07T09:31:02;0.80;99.90
67890;DHT22;54685;52.082;5.426;2024-01-07T09:33:29;0.80;99.90
67890;DHT22;54685;52.082;5.426;2024-01-07T09:35:57;0.90;99.90
67890;DHT22;54685;52.082;5.426;2024-01-07T09:38:36;0.80;99.90
67890;DHT22;54685;52.082;5.426;2024-01-07T09:41:04;0.90;99.90
67890;DHT22;54685;52.082;5.426;2024-01-07T09:43:31;0.90;99.90
67890;DHT22;54685;52.082;5.426;2024-01-07T09:46:02;0.90;99.90
67890;DHT22;54685;52.082;5.426;2024-01-07T09:48:30;0.90;99.90
67890;DHT22;54685;52.082;5.426;2024-01-07T09:50:57;1.00;99.90
67890;DHT22;54685;52.082;5.426;2024-01-07T09:53:29;1.00;99.90
67890;DHT22;54685;52.082;5.426;2024-01-07T09:56:19;1.00;99.90
67890;DHT22;54685;52.082;5.426;2024-01-07T09:58:49;1.00;99.90
67890;DHT22;54685;52.082;5.426;2024-01-07T10:01:20;0.90;99.90
67890;DHT22;54685;52.082;5.426;2024-01-07T10:03:47;0.90;99.90
67890;DHT22;54685;52.082;5.426;2024-01-07T10:06:18;1.00;99.90
67890;DHT22;54685;52.082;5.426;2024-01-07T10:08:46;1.00;99.90
67890;DHT22;54685;52.082;5.426;2024-01-07T10:11:14;1.10;99.90
67890;DHT22;54685;52.082;5.426;2024-01-07T10:13:41;1.10;99.90
67890;DHT22;54685;52.082;5.426;2024-01-07T10:16:08;1.10;99.90
67890;DHT22;54685;52.082;5.426;2024-01-07T10:18:36;1.00;99.90
67890;DHT22;54685;52.082;5.426;2024-01-07T10:21:06;1.00;99.90
67890;DHT22;54685;52.082;5.426;2024-01-07T10:23:33;1.10;99.90
67890;DHT22;54685;52.082;5.426;2024-01-07T10:26:01;1.10;99.90
67890;DHT22;54685;52.082;5.426;2024-01-07T10:28:41;1.20;99.90
67890;DHT22;54685;52.082;5.426;2024-01-07T10:31:08;1.00;99.90
67890;DHT22;54685;52.082;5.426;2024-01-07T10:33:35;1.00;99.90
67890;DHT22;54685;52.082;5.426;2024-01-07T10:36:07;0.90;99.90
67890;DHT22;54685;52.082;5.426;2024-01-07T10:38:36;0.90;99.90
67890;DHT22;54685;52.082;5.426;2024-01-07T10:41:05;0.90;99.90
67890;DHT22;54685;52.082;5.426;2024-01-07T10:43:36;1.00;99.90
67890;DHT22;54685;52.082;5.426;2024-01-07T10:46:05;1.00;99.90
67890;DHT22;54685;52.082;5.426;2024-01-07T10:48:38;1.00;99.90
67890;DHT22;54685;52.082;5.426;2024-01-07T10:51:06;1.00;99.90
67890;DHT22;54685;52.082;5.426;2024-01-07T10:53:37;1.10;99.90
67890;DHT22;54685;52.082;5.426;2024-01-07T10:56:08;1.40;99.90
67890;DHT22;54685;52.082;5.426;2024-01-07T10:58:39;1.60;99.90
67890;DHT22;54685;52.082;5.426;2024-01-07T11:01:06;1.50;99.90
67890;DHT22;54685;52.082;5.426;2024-01-07T11:03:46;1.60;99.90
67890;DHT22;54685;52.082;5.426;2024-01-07T11:06:46;1.60;99.90
67890;DHT22;54685;52.082;5.426;2024-01-07T11:09:36;1.50;99.90
67890;DHT22;54685;52.082;5.426;2024-01-07T11:12:05;1.80;99.90
67890;DHT22;54685;52.082;5.426;2024-01-07T11:14:41;2.20;99.90
67890;DHT22;54685;52.082;5.426;2024-01-07T11:17:11;2.40;99.90
67890;DHT22;54685;52.082;5.426;2024-01-07T11:19:54;2.60;99.90
67890;DHT22;54685;52.082;5.426;2024-01-07T11:22:29;2.80;99.90
67890;DHT22;54685;52.082;5.426;2024-01-07T11:24:57;2.90;99.90
67890;DHT22;54685;52.082;5.426;2024-01-07T11:27:28;2.90;99.90
67890;DHT22;54685;52.082;5.426;2024-01-07T11:30:05;3.10;99.90
67890;DHT22;54685;52.082;5.426;2024-01-07T11:32:34;3.20;98.00
67890;DHT22;54685;52.082;5.426;2024-01-07T11:35:02;3.40;98.50
67890;DHT22;54685;52.082;5.426;2024-01-07T11:37:30;3.50;96.20
67890;DHT22;54685;52.082;5.426;2024-01-07T11:39:57;3.10;99.90
67890;DHT22;54685;52.082;5.426;2024-01-07T11:42:25;3.00;99.90
67890;DHT22;54685;52.082;5.426;2024-01-07T11:44:53;3.00;99.90
67890;DHT22;54685;52.082;5.426;2024-01-07T11:47:21;3.10;99.90
67890;DHT22;54685;52.082;5.426;2024-01-07T11:49:49;3.60;99.90
67890;DHT22;54685;52.082;5.426;2024-01-07T11:52:16;4.20;99.90
67890;DHT22;54685;52.082;5.426;2024-01-07T11:54:44;4.30;91.30
67890;DHT22;54685;52.082;5.426;2024-01-07T11:57:11;4.30;92.80
67890;DHT22;54685;52.082;5.426;2024-01-07T11:59:38;4.70;82.70
67890;DHT22;54685;52.082;5.426;2024-01-07T12:02:10;5.10;70.70
67890;DHT22;54685;52.082;5.426;2024-01-07T12:04:37;5.30;63.20
67890;DHT22;54685;52.082;5.426;2024-01-07T12:07:04;5.30;61.70
67890;DHT22;54685;52.082;5.426;2024-01-07T12:09:32;5.30;51.90
67890;DHT22;54685;52.082;5.426;2024-01-07T12:11:59;5.50;72.90
67890;DHT22;54685;52.082;5.426;2024-01-07T12:14:28;5.80;55.50
67890;DHT22;54685;52.082;5.426;2024-01-07T12:16:56;6.20;53.40
67890;DHT22;54685;52.082;5.426;2024-01-07T12:19:23;6.30;52.40
67890;DHT22;54685;52.082;5.426;2024-01-07T12:22:05;6.30;49.60
67890;DHT22;54685;52.082;5.426;2024-01-07T12:24:33;6.50;69.80
67890;DHT22;54685;52.082;5.426;2024-01-07T12:27:07;6.70;48.70
67890;DHT22;54685;52.082;5.426;2024-01-07T12:29:34;6.80;49.70
67890;DHT22;54685;52.082;5.426;2024-01-07T12:32:05;6.70;48.90
67890;DHT22;54685;52.082;5.426;2024-01-07T12:34:32;6.80;49.60
67890;DHT22;54685;52.082;5.426;2024-01-07T12:37:00;7.20;54.80
67890;DHT22;54685;52.082;5.426;2024-01-07T12:39:29;7.30;42.40
67890;DHT22;54685;52.082;5.426;2024-01-07T12:41:56;7.00;42.10
67890;DHT22;54685;52.082;5.426;2024-01-07T12:44:27;7.00;45.80
67890;DHT22;54685;52.082;5.426;2024-01-07T12:46:54;7.10;45.00
67890;DHT22;54685;52.082;5.426;2024-01-07T12:49:21;7.20;42.90
67890;DHT22;54685;52.082;5.426;2024-01-07T12:51:50;7.40;42.90
67890;DHT22;54685;52.082;5.426;2024-01-07T12:54:17;7.30;39.20
67890;DHT22;54685;52.082;5.426;2024-01-07T12:56:46;7.40;42.50
67890;DHT22;54685;52.082;5.426;2024-01-07T12:59:15;7.10;43.80
67890;DHT22;54685;52.082;5.426;2024-01-07T13:01:42;6.90;41.00
67890;DHT22;54685;52.082;5.426;2024-01-07T13:04:10;6.50;39.70
67890;DHT22;54685;52.082;5.426;2024-01-07T13:06:38;6.50;40.10
67890;DHT22;54685;52.082;5.426;2024-01-07T13:09:05;6.00;37.10
67890;DHT22;54685;52.082;5.426;2024-01-07T13:11:36;5.70;39.00
67890;DHT22;54685;52.082;5.426;2024-01-07T13:14:03;4.80;43.50
67890;DHT22;54685;52.082;5.426;2024-01-07T13:16:31;4.20;48.00
67890;DHT22;54685;52.082;5.426;2024-01-07T13:18:58;3.90;55.10
67890;DHT22;54685;52.082;5.426;2024-01-07T13:21:26;3.40;60.00
67890;DHT22;54685;52.082;5.426;2024-01-07T13:23:53;2.90;65.20
67890;DHT22;54685;52.082;5.426;2024-01-07T13:26:20;3.00;73.20
67890;DHT22;54685;52.082;5.426;2024-01-07T13:28:47;3.40;87.80
67890;DHT22;54685;52.082;5.426;2024-01-07T13:31:14;4.00;79.40
67890;DHT22;54685;52.082;5.426;2024-01-07T13:33:42;4.70;74.00
67890;DHT22;54685;52.082;5.426;2024-01-07T13:36:10;5.50;54.00
67890;DHT22;54685;52.082;5.426;2024-01-07T13:38:39;5.70;49.40
67890;DHT22;54685;52.082;5.426;2024-01-07T13:41:10;6.10;47.00
67890;DHT22;54685;52.082;5.426;2024-01-07T13:43:37;6.10;44.70
67890;DHT22;54685;52.082;5.426;2024-01-07T13:46:07;5.80;41.50
67890;DHT22;54685;52.082;5.426;2024-01-07T13:48:37;5.30;45.40
67890;DHT22;54685;52.082;5.426;2024-01-07T13:51:06;4.70;57.60
67890;DHT22;54685;52.082;5.426;2024-01-07T13:53:33;4.40;60.60
67890;DHT22;54685;52.082;5.426;2024-01-07T13:56:02;3.90;56.90
67890;DHT22;54685;52.082;5.426;2024-01-07T13:58:28;3.40;66.00
67890;DHT22;54685;52.082;5.426;2024-01-07T14:00:55;3.20;70.00
67890;DHT22;54685;52.082;5.426;2024-01-07T14:03:22;3.10;84.70
67890;DHT22;54685;52.082;5.426;2024-01-07T14:05:50;3.10;85.90
67890;DHT22;54685;52.082;5.426;2024-01-07T14:08:18;3.00;83.40
67890;DHT22;54685;52.082;5.426;2024-01-07T14:10:45;2.90;90.10
67890;DHT22;54685;52.082;5.426;2024-01-07T14:13:14;2.80;90.20
67890;DHT22;54685;52.082;5.426;2024-01-07T14:15:42;2.70;90.60
67890;DHT22;54685;52.082;5.426;2024-01-07T14:18:09;2.60;91.50
67890;DHT22;54685;52.082;5.426;2024-01-07T14:20:38;2.60;99.90
67890;DHT22;54685;52.082;5.426;2024-01-07T14:23:05;2.50;92.00
67890;DHT22;54685;52.082;5.426;2024-01-07T14:25:32;2.40;97.00
67890;DHT22;54685;52.082;5.426;2024-01-07T14:27:59;2.50;99.90
67890;DHT22;54685;52.082;5.426;2024-01-07T14:30:26;2.30;95.40
67890;DHT22;54685;52.082;5.426;2024-01-07T14:32:53;2.30;99.90
67890;DHT22;54685;52.082;5.426;2024-01-07T14:35:21;2.30;99.40
67890;DHT22;54685;52.082;5.426;2024-01-07T14:37:49;2.30;99.90
67890;DHT22;54685;52.082;5.426;2024-01-07T14:40:16;2.30;99.90
67890;DHT22;54685;52.082;5.426;2024-01-07T14:42:44;2.20;99.90
67890;DHT22;54685;52.082;5.426;2024-01-07T14:45:11;2.00;99.90
67890;DHT22;54685;52.082;5.426;2024-01-07T14:47:39;2.00;99.90
67890;DHT22;54685;52.082;5.426;2024-01-07T14:50:06;2.00;99.90
67890;DHT22;54685;52.082;5.426;2024-01-07T14:52:35;1.90;98.40
67890;DHT22;54685;52.082;5.426;2024-01-07T14:55:02;1.80;99.90
67890;DHT22;54685;52.082;5.426;2024-01-07T14:57:29;1.80;99.90
67890;DHT22;54685;52.082;5.426;2024-01-07T14:59:56;1.70;99.90
67890;DHT22;54685;52.082;5.426;2024-01-07T15:02:23;1.80;99.90
67890;DHT22;54685;52.082;5.426;2024-01-07T15:04:53;1.60;99.90
67890;DHT22;54685;52.082;5.426;2024-01-07T15:07:22;1.60;99.90
67890;DHT22;54685;52.082;5.426;2024-01-07T15:09:50;1.50;97.60
67890;DHT22;54685;52.082;5.426;2024-01-07T15:12:17;1.50;99.90
67890;DHT22;54685;52.082;5.426;2024-01-07T15:14:45;1.40;99.40
67890;DHT22;54685;52.082;5.426;2024-01-07T15:17:12;1.40;99.90
67890;DHT22;54685;52.082;5.426;2024-01-07T15:19:39;1.40;99.90
67890;DHT22;54685;52.082;5.426;2024-01-07T15:22:06;1.40;99.90
67890;DHT22;54685;52.082;5.426;2024-01-07T15:24:33;1.30;99.90
67890;DHT22;54685;52.082;5.426;2024-01-07T15:27:00;1.30;99.90
67890;DHT22;54685;52.082;5.426;2024-01-07T15:29:27;1.30;99.90
67890;DHT22;54685;52.082;5.426;2024-01-07T15:31:54;1.20;99.90
67890;DHT22;54685;52.082;5.426;2024-01-07T15:34:22;1.30;99.90
67890;DHT22;54685;52.082;5.426;2024-01-07T15:36:49;1.30;99.90
67890;DHT22;54685;52.082;5.426;2024-01-07T15:39:16;1.10;99.90
67890;DHT22;54685;52.082;5.426;2024-01-07T15:41:47;1.10;99.90
67890;DHT22;54685;52.082;5.426;2024-01-07T15:44:14;1.10;99.90
67890;DHT22;54685;52.082;5.426;2024-01-07T15:46:41;1.10;99.90
67890;DHT22;54685;52.082;5.426;2024-01-07T15:49:08;1.00;99.90